sensor_id;sensor_type;location;lat;lon;timestamp;pressure;altitude;pressure_sealevel;temperature;humidity
10988;BME280;5547;42.672;23.230;2023-03-22T00:00:00;92983.78;;;5.71;100.00
10988;BME280;5547;42.672;23.230;2023-03-22T00:03:01;92976.28;;;5.62;100.00
10988;BME280;5547;42.672;23.230;2023-03-22T00:06:02;92965.72;;;5.55;100.00
10988;BME280;5547;42.672;23.230;2023-03-22T00:09:03;92955.19;;;5.44;100.00
10988;BME280;5547;42.672;23.230;2023-03-22T00:12:03;92974.75;;;5.65;100.00
10988;BME280;5547;42.672;23.230;2023-03-22T00:15:04;92980.78;;;5.65;100.00
10988;BME280;5547;42.672;23.230;2023-03-22T00:18:05;92977.78;;;5.60;100.00
10988;BME280;5547;42.672;23.230;2023-03-22T00:21:10;92962.34;;;5.55;100.00
10988;BME280;5547;42.672;23.230;2023-03-22T00:24:12;92984.53;;;5.72;100.00
10988;BME280;5547;42.672;23.230;2023-03-22T00:27:12;92951.81;;;5.44;100.00
10988;BME280;5547;42.672;23.230;2023-03-22T00:30:13;92966.47;;;5.52;100.00
10988;BME280;5547;42.672;23.230;2023-03-22T00:33:13;92962.72;;;5.50;100.00
10988;BME280;5547;42.672;23.230;2023-03-22T00:36:14;92973.25;;;5.57;100.00
10988;BME280;5547;42.672;23.230;2023-03-22T00:39:14;92973.28;;;5.53;100.00
10988;BME280;5547;42.672;23.230;2023-03-22T00:42:15;92965.00;;;5.40;100.00
10988;BME280;5547;42.672;23.230;2023-03-22T00:45:15;92937.88;;;5.33;100.00
10988;BME280;5547;42.672;23.230;2023-03-22T00:48:16;92965.72;;;5.52;100.00
10988;BME280;5547;42.672;23.230;2023-03-22T00:51:16;92956.72;;;5.45;100.00
10988;BME280;5547;42.672;23.230;2023-03-22T00:54:17;92968.75;;;5.50;100.00
10988;BME280;5547;42.672;23.230;2023-03-22T00:57:17;92945.41;;;5.38;100.00
10988;BME280;5547;42.672;23.230;2023-03-22T01:00:18;92964.22;;;5.47;100.00
10988;BME280;5547;42.672;23.230;2023-03-22T01:03:18;92954.84;;;5.39;100.00
10988;BME280;5547;42.672;23.230;2023-03-22T01:06:21;92960.84;;;5.46;100.00
10988;BME280;5547;42.672;23.230;2023-03-22T01:09:21;92931.13;;;5.24;100.00
10988;BME280;5547;42.672;23.230;2023-03-22T01:12:23;92952.94;;;5.39;100.00
10988;BME280;5547;42.672;23.230;2023-03-22T01:15:23;92946.16;;;5.35;100.00
10988;BME280;5547;42.672;23.230;2023-03-22T01:18:24;92946.16;;;5.31;100.00
10988;BME280;5547;42.672;23.230;2023-03-22T01:21:24;92922.84;;;5.19;100.00
10988;BME280;5547;42.672;23.230;2023-03-22T01:24:25;92952.19;;;5.35;100.00
10988;BME280;5547;42.672;23.230;2023-03-22T01:27:25;92947.28;;;5.37;100.00
10988;BME280;5547;42.672;23.230;2023-03-22T01:30:25;92910.81;;;5.07;100.00
10988;BME280;5547;42.672;23.230;2023-03-22T01:33:26;92934.13;;;5.23;100.00
10988;BME280;5547;42.672;23.230;2023-03-22T01:36:26;92863.41;;;4.75;100.00
10988;BME280;5547;42.672;23.230;2023-03-22T01:39:26;92945.81;;;5.25;100.00
10988;BME280;5547;42.672;23.230;2023-03-22T01:42:27;92917.56;;;5.12;100.00
10988;BME280;5547;42.672;23.230;2023-03-22T01:48:37;92933.38;;;5.26;100.00
10988;BME280;5547;42.672;23.230;2023-03-22T01:51:42;92934.13;;;5.19;100.00
10988;BME280;5547;42.672;23.230;2023-03-22T01:54:47;92923.97;;;5.18;100.00
10988;BME280;5547;42.672;23.230;2023-03-22T01:57:49;92935.63;;;5.24;100.00
10988;BME280;5547;42.672;23.230;2023-03-22T02:00:51;92931.13;;;5.24;100.00
10988;BME280;5547;42.672;23.230;2023-03-22T02:03:58;92897.25;;;4.98;100.00
10988;BME280;5547;42.672;23.230;2023-03-22T02:07:05;92936.78;;;5.23;100.00
10988;BME280;5547;42.672;23.230;2023-03-22T02:10:17;92932.63;;;5.25;100.00
10988;BME280;5547;42.672;23.230;2023-03-22T02:16:48;92936.03;;;5.22;100.00
10988;BME280;5547;42.672;23.230;2023-03-22T02:20:10;92939.03;;;5.24;100.00
10988;BME280;5547;42.672;23.230;2023-03-22T02:30:03;92916.47;;;5.02;100.00
10988;BME280;5547;42.672;23.230;2023-03-22T02:40:09;92940.91;;;5.20;100.00
10988;BME280;5547;42.672;23.230;2023-03-22T02:47:00;92954.09;;;5.20;100.00
10988;BME280;5547;42.672;23.230;2023-03-22T02:53:21;92953.34;;;5.27;100.00
10988;BME280;5547;42.672;23.230;2023-03-22T02:56:33;92936.03;;;5.12;100.00
10988;BME280;5547;42.672;23.230;2023-03-22T02:59:40;92945.81;;;5.08;100.00
10988;BME280;5547;42.672;23.230;2023-03-22T03:02:46;92949.97;;;5.12;100.00
10988;BME280;5547;42.672;23.230;2023-03-22T03:05:52;92954.09;;;5.17;100.00
10988;BME280;5547;42.672;23.230;2023-03-22T03:08:54;92947.72;;;5.07;100.00
10988;BME280;5547;42.672;23.230;2023-03-22T03:11:57;92916.06;;;4.89;100.00
10988;BME280;5547;42.672;23.230;2023-03-22T03:14:57;92939.44;;;4.98;100.00
10988;BME280;5547;42.672;23.230;2023-03-22T03:24:32;92944.72;;;5.01;100.00
10988;BME280;5547;42.672;23.230;2023-03-22T03:27:46;92866.41;;;4.48;100.00
10988;BME280;5547;42.672;23.230;2023-03-22T03:30:59;92959.00;;;5.08;100.00
10988;BME280;5547;42.672;23.230;2023-03-22T03:34:11;92944.69;;;4.98;100.00
10988;BME280;5547;42.672;23.230;2023-03-22T03:37:19;92970.31;;;5.04;100.00
10988;BME280;5547;42.672;23.230;2023-03-22T03:40:25;92963.50;;;4.96;100.00
10988;BME280;5547;42.672;23.230;2023-03-22T03:43:27;92975.97;;;5.07;100.00
10988;BME280;5547;42.672;23.230;2023-03-22T03:46:28;92971.81;;;5.09;100.00
10988;BME280;5547;42.672;23.230;2023-03-22T03:49:29;92971.81;;;5.05;100.00
10988;BME280;5547;42.672;23.230;2023-03-22T03:52:29;92971.06;;;5.01;100.00
10988;BME280;5547;42.672;23.230;2023-03-22T03:55:30;92977.84;;;5.06;100.00
10988;BME280;5547;42.672;23.230;2023-03-22T03:58:31;92978.19;;;5.01;100.00
10988;BME280;5547;42.672;23.230;2023-03-22T04:01:31;92948.84;;;4.81;100.00
10988;BME280;5547;42.672;23.230;2023-03-22T04:04:32;92983.47;;;5.08;100.00
10988;BME280;5547;42.672;23.230;2023-03-22T04:07:33;92977.06;;;5.05;100.00
10988;BME280;5547;42.672;23.230;2023-03-22T04:10:34;92986.88;;;5.09;100.00
10988;BME280;5547;42.672;23.230;2023-03-22T04:13:34;92998.53;;;5.08;100.00
10988;BME280;5547;42.672;23.230;2023-03-22T04:16:35;92973.66;;;4.87;100.00
10988;BME280;5547;42.672;23.230;2023-03-22T04:19:35;92999.69;;;5.07;100.00
10988;BME280;5547;42.672;23.230;2023-03-22T04:22:36;92994.00;;;5.08;100.00
10988;BME280;5547;42.672;23.230;2023-03-22T04:25:40;92976.31;;;4.94;100.00
10988;BME280;5547;42.672;23.230;2023-03-22T04:28:41;92988.38;;;5.06;100.00
10988;BME280;5547;42.672;23.230;2023-03-22T04:31:42;92992.88;;;5.05;100.00
10988;BME280;5547;42.672;23.230;2023-03-22T04:34:46;92995.53;;;5.09;100.00
10988;BME280;5547;42.672;23.230;2023-03-22T04:37:47;92995.91;;;5.08;100.00
10988;BME280;5547;42.672;23.230;2023-03-22T04:40:48;92901.03;;;4.47;100.00
10988;BME280;5547;42.672;23.230;2023-03-22T04:43:51;92990.25;;;5.05;100.00
10988;BME280;5547;42.672;23.230;2023-03-22T04:46:51;92989.13;;;5.03;100.00
10988;BME280;5547;42.672;23.230;2023-03-22T04:49:52;93010.97;;;5.11;100.00
10988;BME280;5547;42.672;23.230;2023-03-22T04:52:52;92992.16;;;5.01;100.00
10988;BME280;5547;42.672;23.230;2023-03-22T04:55:53;92956.72;;;4.70;100.00
10988;BME280;5547;42.672;23.230;2023-03-22T04:58:56;93013.25;;;5.09;100.00
10988;BME280;5547;42.672;23.230;2023-03-22T05:01:56;93021.88;;;5.13;100.00
10988;BME280;5547;42.672;23.230;2023-03-22T05:04:57;93005.69;;;5.03;100.00
10988;BME280;5547;42.672;23.230;2023-03-22T05:07:57;93009.47;;;5.10;100.00
10988;BME280;5547;42.672;23.230;2023-03-22T05:11:05;93015.88;;;5.23;100.00
10988;BME280;5547;42.672;23.230;2023-03-22T05:14:07;92991.38;;;5.12;100.00
10988;BME280;5547;42.672;23.230;2023-03-22T05:17:07;93024.53;;;5.31;100.00
10988;BME280;5547;42.672;23.230;2023-03-22T05:20:08;93014.00;;;5.27;100.00
10988;BME280;5547;42.672;23.230;2023-03-22T05:23:09;93033.19;;;5.38;100.00
10988;BME280;5547;42.672;23.230;2023-03-22T05:26:10;93038.84;;;5.44;100.00
10988;BME280;5547;42.672;23.230;2023-03-22T05:29:14;93036.19;;;5.47;100.00
10988;BME280;5547;42.672;23.230;2023-03-22T05:32:15;92989.13;;;5.28;100.00
10988;BME280;5547;42.672;23.230;2023-03-22T05:35:17;93035.44;;;5.54;100.00
10988;BME280;5547;42.672;23.230;2023-03-22T05:38:17;93038.84;;;5.58;100.00
10988;BME280;5547;42.672;23.230;2023-03-22T05:41:18;93041.09;;;5.63;100.00
10988;BME280;5547;42.672;23.230;2023-03-22T05:44:19;92990.63;;;5.36;100.00
10988;BME280;5547;42.672;23.230;2023-03-22T05:47:19;92995.91;;;5.36;100.00
10988;BME280;5547;42.672;23.230;2023-03-22T05:50:22;93045.63;;;5.74;100.00
10988;BME280;5547;42.672;23.230;2023-03-22T05:53:22;93005.69;;;5.46;100.00
10988;BME280;5547;42.672;23.230;2023-03-22T05:56:22;93033.56;;;5.55;100.00
10988;BME280;5547;42.672;23.230;2023-03-22T05:59:23;93053.91;;;5.72;100.00
10988;BME280;5547;42.672;23.230;2023-03-22T06:02:24;93061.44;;;5.81;100.00
10988;BME280;5547;42.672;23.230;2023-03-22T06:05:25;93035.09;;;5.59;100.00
10988;BME280;5547;42.672;23.230;2023-03-22T06:08:25;93064.84;;;5.74;100.00
10988;BME280;5547;42.672;23.230;2023-03-22T06:11:26;92980.47;;;5.35;100.00
10988;BME280;5547;42.672;23.230;2023-03-22T06:14:26;93064.06;;;5.95;100.00
10988;BME280;5547;42.672;23.230;2023-03-22T06:17:27;93065.59;;;5.96;100.00
10988;BME280;5547;42.672;23.230;2023-03-22T06:20:27;93064.81;;;6.03;100.00
10988;BME280;5547;42.672;23.230;2023-03-22T06:23:28;93028.22;;;5.90;100.00
10988;BME280;5547;42.672;23.230;2023-03-22T06:26:29;93070.75;;;6.43;100.00
10988;BME280;5547;42.672;23.230;2023-03-22T06:29:33;92997.69;;;5.86;100.00
10988;BME280;5547;42.672;23.230;2023-03-22T06:32:34;93076.06;;;6.36;100.00
10988;BME280;5547;42.672;23.230;2023-03-22T06:35:35;93066.53;;;6.60;100.00
10988;BME280;5547;42.672;23.230;2023-03-22T06:38:35;93085.31;;;6.80;100.00
10988;BME280;5547;42.672;23.230;2023-03-22T06:41:35;93063.06;;;6.73;100.00
10988;BME280;5547;42.672;23.230;2023-03-22T06:44:36;93074.72;;;6.87;100.00
10988;BME280;5547;42.672;23.230;2023-03-22T06:47:36;93083.41;;;7.43;100.00
10988;BME280;5547;42.672;23.230;2023-03-22T06:50:37;93046.03;;;6.78;100.00
10988;BME280;5547;42.672;23.230;2023-03-22T06:53:38;93089.69;;;7.08;100.00
10988;BME280;5547;42.672;23.230;2023-03-22T06:56:38;93059.56;;;6.94;100.00
10988;BME280;5547;42.672;23.230;2023-03-22T06:59:39;93032.72;;;7.48;100.00
10988;BME280;5547;42.672;23.230;2023-03-22T07:02:39;93054.44;;;7.29;100.00
10988;BME280;5547;42.672;23.230;2023-03-22T07:05:40;93027.84;;;6.91;100.00
10988;BME280;5547;42.672;23.230;2023-03-22T07:08:40;93071.66;;;7.51;100.00
10988;BME280;5547;42.672;23.230;2023-03-22T07:11:41;93108.28;;;7.56;100.00
10988;BME280;5547;42.672;23.230;2023-03-22T07:14:41;93023.91;;;7.13;100.00
10988;BME280;5547;42.672;23.230;2023-03-22T07:17:42;93105.69;;;7.49;100.00
10988;BME280;5547;42.672;23.230;2023-03-22T07:20:42;93114.50;;;7.84;100.00
10988;BME280;5547;42.672;23.230;2023-03-22T07:23:44;93121.44;;;8.16;100.00
10988;BME280;5547;42.672;23.230;2023-03-22T07:26:44;93131.53;;;8.28;100.00
10988;BME280;5547;42.672;23.230;2023-03-22T07:29:45;93124.03;;;7.74;100.00
10988;BME280;5547;42.672;23.230;2023-03-22T07:32:46;93133.16;;;7.66;100.00
10988;BME280;5547;42.672;23.230;2023-03-22T07:35:46;93133.72;;;7.40;100.00
10988;BME280;5547;42.672;23.230;2023-03-22T07:38:46;93140.84;;;7.46;100.00
10988;BME280;5547;42.672;23.230;2023-03-22T07:41:47;93127.84;;;7.70;100.00
10988;BME280;5547;42.672;23.230;2023-03-22T07:44:47;93136.88;;;7.17;100.00
10988;BME280;5547;42.672;23.230;2023-03-22T07:47:48;93134.06;;;6.71;100.00
10988;BME280;5547;42.672;23.230;2023-03-22T07:50:53;93139.34;;;6.71;100.00
10988;BME280;5547;42.672;23.230;2023-03-22T07:53:54;93105.75;;;6.68;100.00
10988;BME280;5547;42.672;23.230;2023-03-22T07:56:54;93141.56;;;6.77;100.00
10988;BME280;5547;42.672;23.230;2023-03-22T07:59:55;93124.63;;;6.70;100.00
10988;BME280;5547;42.672;23.230;2023-03-22T08:02:56;93152.16;;;6.77;100.00
10988;BME280;5547;42.672;23.230;2023-03-22T08:06:00;93150.28;;;6.73;100.00
10988;BME280;5547;42.672;23.230;2023-03-22T08:09:03;93146.13;;;6.76;100.00
10988;BME280;5547;42.672;23.230;2023-03-22T08:12:04;93129.13;;;6.73;100.00
10988;BME280;5547;42.672;23.230;2023-03-22T08:15:05;93144.97;;;6.84;100.00
10988;BME280;5547;42.672;23.230;2023-03-22T08:18:05;93149.13;;;6.82;100.00
10988;BME280;5547;42.672;23.230;2023-03-22T08:21:08;93145.72;;;6.81;100.00
10988;BME280;5547;42.672;23.230;2023-03-22T08:24:08;93153.66;;;6.81;100.00
10988;BME280;5547;42.672;23.230;2023-03-22T08:27:09;93141.19;;;6.82;100.00
10988;BME280;5547;42.672;23.230;2023-03-22T08:30:10;93140.09;;;6.76;100.00
10988;BME280;5547;42.672;23.230;2023-03-22T08:33:11;93145.00;;;6.73;100.00
10988;BME280;5547;42.672;23.230;2023-03-22T08:36:17;93153.25;;;6.90;100.00
10988;BME280;5547;42.672;23.230;2023-03-22T08:39:18;93148.38;;;6.78;100.00
10988;BME280;5547;42.672;23.230;2023-03-22T08:42:19;93159.34;;;6.72;100.00
10988;BME280;5547;42.672;23.230;2023-03-22T08:45:20;92911.19;;;4.95;100.00
10988;BME280;5547;42.672;23.230;2023-03-22T08:48:20;93169.94;;;6.69;100.00
10988;BME280;5547;42.672;23.230;2023-03-22T08:51:21;93134.16;;;6.43;100.00
10988;BME280;5547;42.672;23.230;2023-03-22T08:54:22;93165.00;;;6.74;100.00
10988;BME280;5547;42.672;23.230;2023-03-22T08:57:23;93156.22;;;6.99;100.00
10988;BME280;5547;42.672;23.230;2023-03-22T09:00:23;93158.97;;;6.70;100.00
10988;BME280;5547;42.672;23.230;2023-03-22T09:03:24;93169.97;;;6.51;100.00
10988;BME280;5547;42.672;23.230;2023-03-22T09:06:25;93167.72;;;6.42;100.00
10988;BME280;5547;42.672;23.230;2023-03-22T09:09:25;93174.09;;;6.66;100.00
10988;BME280;5547;42.672;23.230;2023-03-22T09:12:26;93176.72;;;6.77;100.00
10988;BME280;5547;42.672;23.230;2023-03-22T09:15:26;93167.63;;;6.74;100.00
10988;BME280;5547;42.672;23.230;2023-03-22T09:18:27;93184.59;;;6.88;100.00
10988;BME280;5547;42.672;23.230;2023-03-22T09:21:28;93158.22;;;6.70;100.00
10988;BME280;5547;42.672;23.230;2023-03-22T09:24:31;93182.72;;;6.85;100.00
10988;BME280;5547;42.672;23.230;2023-03-22T09:27:32;93175.94;;;6.77;100.00
10988;BME280;5547;42.672;23.230;2023-03-22T09:30:32;93177.44;;;6.85;100.00
10988;BME280;5547;42.672;23.230;2023-03-22T09:33:34;93171.41;;;6.81;100.00
10988;BME280;5547;42.672;23.230;2023-03-22T09:36:34;93175.16;;;6.87;100.00
10988;BME280;5547;42.672;23.230;2023-03-22T09:39:35;93160.06;;;6.80;100.00
10988;BME280;5547;42.672;23.230;2023-03-22T09:42:41;93160.81;;;6.81;100.00
10988;BME280;5547;42.672;23.230;2023-03-22T09:45:47;93171.25;;;7.20;100.00
10988;BME280;5547;42.672;23.230;2023-03-22T09:48:49;93171.94;;;7.31;100.00
10988;BME280;5547;42.672;23.230;2023-03-22T09:51:53;93153.03;;;7.33;100.00
10988;BME280;5547;42.672;23.230;2023-03-22T09:54:53;93159.09;;;7.33;100.00
10988;BME280;5547;42.672;23.230;2023-03-22T10:10:42;93180.16;;;7.48;100.00
10988;BME280;5547;42.672;23.230;2023-03-22T10:14:01;93171.81;;;7.56;100.00
10988;BME280;5547;42.672;23.230;2023-03-22T10:17:08;93184.06;;;7.29;100.00
10988;BME280;5547;42.672;23.230;2023-03-22T10:20:24;93180.97;;;7.41;100.00
10988;BME280;5547;42.672;23.230;2023-03-22T10:23:40;93170.41;;;7.34;100.00
10988;BME280;5547;42.672;23.230;2023-03-22T10:26:46;93159.03;;;7.41;100.00
10988;BME280;5547;42.672;23.230;2023-03-22T10:29:54;93184.34;;;7.45;100.00
10988;BME280;5547;42.672;23.230;2023-03-22T10:33:03;93187.91;;;7.80;100.00
10988;BME280;5547;42.672;23.230;2023-03-22T10:36:09;93165.44;;;7.47;100.00
10988;BME280;5547;42.672;23.230;2023-03-22T10:39:25;93171.75;;;7.64;100.00
10988;BME280;5547;42.672;23.230;2023-03-22T10:42:28;93177.19;;;7.42;100.00
10988;BME280;5547;42.672;23.230;2023-03-22T10:45:32;93181.59;;;7.60;100.00
10988;BME280;5547;42.672;23.230;2023-03-22T10:48:38;93176.34;;;7.56;100.00
10988;BME280;5547;42.672;23.230;2023-03-22T10:51:53;93161.22;;;7.53;100.00
10988;BME280;5547;42.672;23.230;2023-03-22T10:54:56;93181.25;;;7.57;100.00
10988;BME280;5547;42.672;23.230;2023-03-22T10:58:18;93185.25;;;7.84;100.00
10988;BME280;5547;42.672;23.230;2023-03-22T11:01:31;93187.91;;;7.80;100.00
10988;BME280;5547;42.672;23.230;2023-03-22T11:04:31;93179.16;;;7.90;100.00
10988;BME280;5547;42.672;23.230;2023-03-22T11:07:35;93185.56;;;7.89;100.00
10988;BME280;5547;42.672;23.230;2023-03-22T11:10:36;93185.25;;;7.80;100.00
10988;BME280;5547;42.672;23.230;2023-03-22T11:13:37;93174.03;;;7.62;100.00
10988;BME280;5547;42.672;23.230;2023-03-22T11:19:58;93183.34;;;7.84;100.00
10988;BME280;5547;42.672;23.230;2023-03-22T11:23:03;93165.63;;;7.74;100.00
10988;BME280;5547;42.672;23.230;2023-03-22T11:26:10;93168.94;;;7.85;100.00
10988;BME280;5547;42.672;23.230;2023-03-22T11:29:18;93176.88;;;7.89;100.00
10988;BME280;5547;42.672;23.230;2023-03-22T11:32:29;93171.66;;;7.78;100.00
10988;BME280;5547;42.672;23.230;2023-03-22T11:35:30;93169.38;;;7.80;100.00
10988;BME280;5547;42.672;23.230;2023-03-22T11:38:38;93167.75;;;7.93;100.00
10988;BME280;5547;42.672;23.230;2023-03-22T11:41:39;93180.66;;;7.88;100.00
10988;BME280;5547;42.672;23.230;2023-03-22T11:44:40;93166.34;;;7.82;100.00
10988;BME280;5547;42.672;23.230;2023-03-22T11:47:42;93155.81;;;7.74;100.00
10988;BME280;5547;42.672;23.230;2023-03-22T11:50:44;93162.47;;;7.90;100.00
10988;BME280;5547;42.672;23.230;2023-03-22T11:53:46;93169.72;;;7.86;100.00
10988;BME280;5547;42.672;23.230;2023-03-22T11:56:48;93166.31;;;7.85;100.00
10988;BME280;5547;42.672;23.230;2023-03-22T12:00:02;93163.59;;;7.96;100.00
10988;BME280;5547;42.672;23.230;2023-03-22T12:03:15;93166.22;;;7.99;100.00
10988;BME280;5547;42.672;23.230;2023-03-22T12:06:38;93175.22;;;8.09;100.00
10988;BME280;5547;42.672;23.230;2023-03-22T12:09:48;93176.28;;;8.15;100.00
10988;BME280;5547;42.672;23.230;2023-03-22T12:16:12;93166.84;;;8.14;100.00
10988;BME280;5547;42.672;23.230;2023-03-22T12:22:37;93171.47;;;8.03;100.00
10988;BME280;5547;42.672;23.230;2023-03-22T12:25:45;93083.03;;;8.31;100.00
10988;BME280;5547;42.672;23.230;2023-03-22T12:29:04;93167.75;;;8.80;100.00
10988;BME280;5547;42.672;23.230;2023-03-22T12:32:10;93135.72;;;8.22;100.00
10988;BME280;5547;42.672;23.230;2023-03-22T12:35:20;93146.91;;;8.44;100.00
10988;BME280;5547;42.672;23.230;2023-03-22T12:41:42;93147.59;;;8.90;100.00
10988;BME280;5547;42.672;23.230;2023-03-22T12:44:45;93160.34;;;8.98;100.00
10988;BME280;5547;42.672;23.230;2023-03-22T12:47:50;93143.75;;;8.91;100.00
10988;BME280;5547;42.672;23.230;2023-03-22T12:51:05;93131.53;;;8.66;100.00
10988;BME280;5547;42.672;23.230;2023-03-22T12:54:09;93153.56;;;8.94;100.00
10988;BME280;5547;42.672;23.230;2023-03-22T12:57:13;93167.28;;;9.19;100.00
10988;BME280;5547;42.672;23.230;2023-03-22T13:00:16;93161.94;;;9.23;100.00
10988;BME280;5547;42.672;23.230;2023-03-22T13:03:36;93124.47;;;8.87;100.00
10988;BME280;5547;42.672;23.230;2023-03-22T13:09:48;93159.94;;;9.00;100.00
10988;BME280;5547;42.672;23.230;2023-03-22T13:16:17;93156.38;;;8.45;100.00
10988;BME280;5547;42.672;23.230;2023-03-22T13:19:32;93150.75;;;8.36;100.00
10988;BME280;5547;42.672;23.230;2023-03-22T13:25:38;93152.72;;;8.28;100.00
10988;BME280;5547;42.672;23.230;2023-03-22T13:28:59;93145.00;;;8.45;100.00
10988;BME280;5547;42.672;23.230;2023-03-22T13:32:02;93149.19;;;8.38;100.00
10988;BME280;5547;42.672;23.230;2023-03-22T13:35:13;93116.03;;;8.65;100.00
10988;BME280;5547;42.672;23.230;2023-03-22T13:38:39;93151.44;;;8.81;100.00
10988;BME280;5547;42.672;23.230;2023-03-22T13:41:43;93135.25;;;9.07;100.00
10988;BME280;5547;42.672;23.230;2023-03-22T13:44:52;93124.78;;;9.23;100.00
10988;BME280;5547;42.672;23.230;2023-03-22T13:48:08;93155.53;;;9.20;100.00
10988;BME280;5547;42.672;23.230;2023-03-22T13:51:21;93146.03;;;9.23;100.00
10988;BME280;5547;42.672;23.230;2023-03-22T13:54:37;93154.38;;;9.52;100.00
10988;BME280;5547;42.672;23.230;2023-03-22T14:00:48;93149.63;;;9.63;100.00
10988;BME280;5547;42.672;23.230;2023-03-22T14:03:52;93146.00;;;9.27;100.00
10988;BME280;5547;42.672;23.230;2023-03-22T14:06:57;93149.13;;;9.18;100.00
10988;BME280;5547;42.672;23.230;2023-03-22T14:10:02;93155.66;;;9.10;100.00
10988;BME280;5547;42.672;23.230;2023-03-22T14:16:37;93153.94;;;9.27;100.00
10988;BME280;5547;42.672;23.230;2023-03-22T14:19:39;93160.00;;;9.27;100.00
10988;BME280;5547;42.672;23.230;2023-03-22T14:22:46;93160.97;;;9.67;100.00
10988;BME280;5547;42.672;23.230;2023-03-22T14:25:49;93160.25;;;9.91;99.81
10988;BME280;5547;42.672;23.230;2023-03-22T14:28:51;93159.81;;;9.41;100.00
10988;BME280;5547;42.672;23.230;2023-03-22T14:32:00;93157.56;;;9.09;100.00
10988;BME280;5547;42.672;23.230;2023-03-22T14:35:15;93156.94;;;8.98;100.00
10988;BME280;5547;42.672;23.230;2023-03-22T14:38:20;93161.66;;;8.83;100.00
10988;BME280;5547;42.672;23.230;2023-03-22T14:41:22;93167.88;;;8.69;100.00
10988;BME280;5547;42.672;23.230;2023-03-22T14:44:23;93150.44;;;8.68;100.00
10988;BME280;5547;42.672;23.230;2023-03-22T14:47:32;93150.59;;;8.54;100.00
10988;BME280;5547;42.672;23.230;2023-03-22T14:50:44;93119.34;;;8.72;100.00
10988;BME280;5547;42.672;23.230;2023-03-22T14:53:46;93163.31;;;8.70;100.00
10988;BME280;5547;42.672;23.230;2023-03-22T14:56:50;93154.41;;;8.53;100.00
10988;BME280;5547;42.672;23.230;2023-03-22T14:59:53;93159.72;;;8.53;100.00
10988;BME280;5547;42.672;23.230;2023-03-22T15:03:03;93137.81;;;8.45;100.00
10988;BME280;5547;42.672;23.230;2023-03-22T15:06:07;93132.16;;;8.39;100.00
10988;BME280;5547;42.672;23.230;2023-03-22T15:09:10;93164.94;;;8.60;100.00
10988;BME280;5547;42.672;23.230;2023-03-22T15:12:12;93138.84;;;8.55;100.00
10988;BME280;5547;42.672;23.230;2023-03-22T15:15:13;93165.91;;;8.73;100.00
10988;BME280;5547;42.672;23.230;2023-03-22T15:18:18;93155.59;;;8.48;100.00
10988;BME280;5547;42.672;23.230;2023-03-22T15:21:19;93162.44;;;8.38;100.00
10988;BME280;5547;42.672;23.230;2023-03-22T15:24:29;93142.94;;;8.21;100.00
10988;BME280;5547;42.672;23.230;2023-03-22T15:27:32;93159.94;;;8.24;100.00
10988;BME280;5547;42.672;23.230;2023-03-22T15:30:35;93153.22;;;8.16;100.00
10988;BME280;5547;42.672;23.230;2023-03-22T15:33:37;93154.03;;;8.09;100.00
10988;BME280;5547;42.672;23.230;2023-03-22T15:36:38;93155.97;;;8.02;100.00
10988;BME280;5547;42.672;23.230;2023-03-22T15:39:39;93133.34;;;7.90;100.00
10988;BME280;5547;42.672;23.230;2023-03-22T15:42:40;93105.53;;;7.71;100.00
10988;BME280;5547;42.672;23.230;2023-03-22T15:46:04;93136.19;;;7.68;100.00
10988;BME280;5547;42.672;23.230;2023-03-22T15:49:20;93130.63;;;7.52;100.00
10988;BME280;5547;42.672;23.230;2023-03-22T15:52:28;93155.44;;;7.69;100.00
10988;BME280;5547;42.672;23.230;2023-03-22T15:55:33;93140.84;;;7.50;100.00
10988;BME280;5547;42.672;23.230;2023-03-22T15:58:34;93149.16;;;7.48;100.00
10988;BME280;5547;42.672;23.230;2023-03-22T16:01:41;93160.47;;;7.52;100.00
10988;BME280;5547;42.672;23.230;2023-03-22T16:04:43;93174.16;;;7.40;100.00
10988;BME280;5547;42.672;23.230;2023-03-22T16:07:44;93165.91;;;7.31;100.00
10988;BME280;5547;42.672;23.230;2023-03-22T16:10:44;93165.91;;;7.27;100.00
10988;BME280;5547;42.672;23.230;2023-03-22T16:13:45;93168.50;;;7.34;100.00
10988;BME280;5547;42.672;23.230;2023-03-22T16:16:46;93170.91;;;7.14;100.00
10988;BME280;5547;42.672;23.230;2023-03-22T16:19:48;93151.03;;;6.78;100.00
10988;BME280;5547;42.672;23.230;2023-03-22T16:22:49;93172.94;;;6.71;100.00
10988;BME280;5547;42.672;23.230;2023-03-22T16:25:50;93141.31;;;6.35;100.00
10988;BME280;5547;42.672;23.230;2023-03-22T16:28:50;93154.94;;;6.19;100.00
10988;BME280;5547;42.672;23.230;2023-03-22T16:31:51;93159.84;;;6.03;100.00
10988;BME280;5547;42.672;23.230;2023-03-22T16:34:51;93179.44;;;5.77;100.00
10988;BME280;5547;42.672;23.230;2023-03-22T16:37:52;93188.47;;;5.79;100.00
10988;BME280;5547;42.672;23.230;2023-03-22T16:40:53;93155.63;;;5.30;100.00
10988;BME280;5547;42.672;23.230;2023-03-22T16:43:56;93194.84;;;5.39;100.00
10988;BME280;5547;42.672;23.230;2023-03-22T16:46:57;93192.53;;;5.26;100.00
10988;BME280;5547;42.672;23.230;2023-03-22T16:49:59;93187.22;;;5.09;100.00
10988;BME280;5547;42.672;23.230;2023-03-22T16:52:59;93159.56;;;4.63;100.00
10988;BME280;5547;42.672;23.230;2023-03-22T16:56:00;93205.94;;;4.78;100.00
10988;BME280;5547;42.672;23.230;2023-03-22T16:59:00;93153.50;;;4.55;100.00
10988;BME280;5547;42.672;23.230;2023-03-22T17:02:01;93189.31;;;4.67;100.00
10988;BME280;5547;42.672;23.230;2023-03-22T17:05:01;93209.72;;;4.88;100.00
10988;BME280;5547;42.672;23.230;2023-03-22T17:08:02;93193.16;;;4.84;100.00
10988;BME280;5547;42.672;23.230;2023-03-22T17:11:04;93202.94;;;4.83;100.00
10988;BME280;5547;42.672;23.230;2023-03-22T17:14:04;93217.63;;;4.88;100.00
10988;BME280;5547;42.672;23.230;2023-03-22T17:17:05;93116.31;;;3.98;100.00
10988;BME280;5547;42.672;23.230;2023-03-22T17:20:05;93188.47;;;4.52;100.00
10988;BME280;5547;42.672;23.230;2023-03-22T17:23:08;93222.44;;;4.72;100.00
10988;BME280;5547;42.672;23.230;2023-03-22T17:26:10;93223.91;;;4.66;100.00